createdAt,value
2023-09-04T00:02:03.651Z,18.10
2023-09-04T00:04:30.597Z,18.10
2023-09-04T00:06:58.710Z,18.10
2023-09-04T00:09:25.644Z,18.00
2023-09-04T00:11:52.561Z,17.90
2023-09-04T00:14:19.486Z,17.60
2023-09-04T00:16:46.400Z,17.60
2023-09-04T00:19:14.718Z,17.60
2023-09-04T00:21:41.900Z,17.60
2023-09-04T00:24:09.099Z,17.60
2023-09-04T00:26:36.798Z,17.60
2023-09-04T00:29:03.895Z,17.50
2023-09-04T00:31:30.848Z,17.50
2023-09-04T00:33:57.826Z,17.40
2023-09-04T00:36:26.088Z,17.40
2023-09-04T00:38:53.072Z,17.40
2023-09-04T00:41:20.106Z,17.40
2023-09-04T00:43:47.019Z,17.50
2023-09-04T00:46:14.150Z,17.40
2023-09-04T00:48:41.627Z,17.40
2023-09-04T00:51:08.823Z,17.40
2023-09-04T00:53:38.753Z,17.30
2023-09-04T00:56:07.334Z,17.20
2023-09-04T00:58:35.264Z,17.10
2023-09-04T01:01:02.396Z,17.10
2023-09-04T01:03:30.601Z,17.10
2023-09-04T01:05:57.913Z,17.10
2023-09-04T01:08:25.944Z,17.00
2023-09-04T01:11:00.385Z,17.00
2023-09-04T01:13:31.972Z,16.90
2023-09-04T01:16:00.473Z,16.90
2023-09-04T01:18:28.554Z,16.80
2023-09-04T01:21:04.008Z,16.90
2023-09-04T01:23:31.009Z,16.80
2023-09-04T01:26:07.960Z,16.80
2023-09-04T01:28:43.293Z,16.80
2023-09-04T01:31:18.338Z,16.80
2023-09-04T01:33:51.276Z,16.90
2023-09-04T01:36:21.399Z,16.80
2023-09-04T01:38:48.540Z,16.70
2023-09-04T01:41:15.605Z,16.60
2023-09-04T01:43:42.570Z,16.50
2023-09-04T01:46:10.347Z,16.50
2023-09-04T01:48:37.266Z,16.50
2023-09-04T01:51:04.227Z,16.60
2023-09-04T01:53:32.513Z,16.60
2023-09-04T01:55:59.448Z,16.50
2023-09-04T01:58:26.865Z,16.50
2023-09-04T02:00:53.816Z,16.50
2023-09-04T02:03:20.948Z,16.40
2023-09-04T02:05:48.052Z,16.40
2023-09-04T02:08:15.205Z,16.30
2023-09-04T02:10:43.579Z,16.20
2023-09-04T02:13:10.560Z,16.20
2023-09-04T02:15:37.902Z,16.20
2023-09-04T02:18:05.236Z,16.20
2023-09-04T02:20:32.683Z,16.10
2023-09-04T02:22:59.908Z,16.10
2023-09-04T02:25:27.527Z,16.10
2023-09-04T02:27:55.901Z,16.10
2023-09-04T02:30:22.922Z,16.10
2023-09-04T02:32:49.981Z,16.10
2023-09-04T02:35:17.301Z,16.20
2023-09-04T02:37:44.567Z,16.20
2023-09-04T02:40:12.751Z,16.20
2023-09-04T02:42:39.855Z,16.20
2023-09-04T02:45:09.930Z,16.20
2023-09-04T02:47:36.893Z,16.20
2023-09-04T02:50:06.489Z,16.20
2023-09-04T02:52:33.536Z,16.20
2023-09-04T02:55:00.770Z,16.20
2023-09-04T02:57:29.979Z,16.20
2023-09-04T02:59:56.903Z,16.20
2023-09-04T03:02:25.478Z,16.10
2023-09-04T03:04:56.022Z,16.10
2023-09-04T03:07:23.176Z,16.00
2023-09-04T03:09:54.946Z,15.70
2023-09-04T03:12:21.961Z,15.70
2023-09-04T03:14:48.890Z,15.70
2023-09-04T03:17:15.851Z,15.80
2023-09-04T03:19:44.240Z,15.80
2023-09-04T03:22:11.240Z,15.70
2023-09-04T03:24:38.194Z,15.80
2023-09-04T03:27:05.649Z,15.80
2023-09-04T03:29:32.628Z,15.80
2023-09-04T03:32:00.114Z,15.80
2023-09-04T03:34:27.026Z,15.70
2023-09-04T03:36:55.310Z,15.60
2023-09-04T03:39:22.899Z,15.60
2023-09-04T03:41:49.846Z,15.60
2023-09-04T03:44:16.816Z,15.70
2023-09-04T03:46:44.136Z,15.60
2023-09-04T03:49:11.788Z,15.50
2023-09-04T03:51:38.683Z,15.40
2023-09-04T03:54:07.170Z,15.40
2023-09-04T03:56:34.593Z,15.40
2023-09-04T03:59:01.577Z,15.50
2023-09-04T04:01:28.814Z,15.50
2023-09-04T04:03:56.111Z,15.40
2023-09-04T04:06:23.113Z,15.30
2023-09-04T04:08:50.307Z,15.30
2023-09-04T04:11:18.880Z,15.30
2023-09-04T04:13:45.987Z,15.20
2023-09-04T04:16:13.247Z,15.20
2023-09-04T04:18:40.344Z,15.20
2023-09-04T04:21:07.262Z,15.20
2023-09-04T04:23:35.433Z,15.20
2023-09-04T04:26:02.529Z,15.10
2023-09-04T04:28:30.999Z,15.00
2023-09-04T04:31:01.544Z,15.00
2023-09-04T04:33:28.601Z,15.00
2023-09-04T04:35:55.759Z,15.00
2023-09-04T04:38:23.163Z,15.10
2023-09-04T04:40:50.432Z,15.00
2023-09-04T04:43:17.344Z,15.10
2023-09-04T04:45:45.673Z,15.20
2023-09-04T04:48:12.753Z,15.00
2023-09-04T04:50:39.658Z,15.10
2023-09-04T04:53:06.588Z,15.00
2023-09-04T04:55:33.507Z,15.00
2023-09-04T04:58:00.540Z,15.00
2023-09-04T05:00:27.502Z,15.00
2023-09-04T05:02:55.883Z,15.00
2023-09-04T05:05:23.146Z,15.00
2023-09-04T05:07:50.015Z,15.00
2023-09-04T05:10:17.111Z,15.00
2023-09-04T05:12:44.312Z,15.00
2023-09-04T05:15:12.000Z,15.00
2023-09-04T05:17:38.940Z,15.00
2023-09-04T05:20:08.822Z,15.00
2023-09-04T05:22:35.706Z,15.00
2023-09-04T05:25:02.737Z,15.00
2023-09-04T05:27:29.684Z,15.10
2023-09-04T05:29:56.574Z,15.10
2023-09-04T05:32:23.531Z,15.20
2023-09-04T05:34:53.613Z,15.10
2023-09-04T05:37:22.039Z,15.10
2023-09-04T05:39:49.128Z,15.10
2023-09-04T05:42:16.067Z,15.10
2023-09-04T05:44:43.044Z,15.10
2023-09-04T05:47:10.038Z,15.10
2023-09-04T05:49:37.309Z,15.20
2023-09-04T05:52:04.629Z,15.30
2023-09-04T05:54:33.053Z,15.40
2023-09-04T05:57:00.069Z,15.40
2023-09-04T05:59:27.019Z,15.40
2023-09-04T06:01:54.042Z,15.40
2023-09-04T06:04:22.605Z,15.50
2023-09-04T06:06:51.846Z,15.50
2023-09-04T06:09:18.951Z,15.50
2023-09-04T06:11:47.455Z,15.60
2023-09-04T06:14:14.463Z,15.60
2023-09-04T06:16:41.539Z,15.60
2023-09-04T06:19:08.480Z,15.60
2023-09-04T06:21:35.603Z,15.70
2023-09-04T06:24:02.562Z,15.80
2023-09-04T06:26:29.452Z,15.80
2023-09-04T06:28:57.832Z,15.80
2023-09-04T06:31:24.867Z,15.90
2023-09-04T06:33:51.892Z,16.00
2023-09-04T06:36:18.797Z,16.10
2023-09-04T06:38:45.700Z,16.20
2023-09-04T06:41:12.644Z,16.40
2023-09-04T06:43:39.553Z,16.80
2023-09-04T06:46:08.210Z,17.30
2023-09-04T06:48:35.334Z,17.80
2023-09-04T06:51:02.307Z,18.30
2023-09-04T06:53:29.249Z,19.00
2023-09-04T06:55:56.143Z,19.60
2023-09-04T06:58:23.380Z,20.20
2023-09-04T07:00:53.490Z,20.80
2023-09-04T07:03:22.777Z,21.40
2023-09-04T07:05:50.470Z,22.00
2023-09-04T07:08:17.369Z,22.20
2023-09-04T07:10:44.298Z,22.40
2023-09-04T07:13:11.292Z,22.50
2023-09-04T07:15:38.284Z,22.70
2023-09-04T07:18:05.627Z,22.70
2023-09-04T07:20:34.218Z,23.10
2023-09-04T07:23:14.719Z,23.40
2023-09-04T07:25:48.106Z,23.50
2023-09-04T07:28:15.058Z,23.80
2023-09-04T07:30:41.954Z,23.90
2023-09-04T07:33:08.934Z,23.80
2023-09-04T07:35:37.469Z,23.90
2023-09-04T07:38:04.724Z,24.40
2023-09-04T07:40:31.621Z,24.60
2023-09-04T07:42:58.570Z,24.40
2023-09-04T07:45:25.878Z,24.60
2023-09-04T07:47:53.061Z,24.60
2023-09-04T07:50:20.180Z,25.00
2023-09-04T07:52:48.501Z,25.20
2023-09-04T07:55:15.502Z,25.30
2023-09-04T07:57:42.446Z,25.50
2023-09-04T08:00:10.115Z,25.90
2023-09-04T08:02:37.042Z,26.20
2023-09-04T08:05:04.281Z,25.80
2023-09-04T08:07:33.120Z,25.80
2023-09-04T08:10:03.016Z,25.90
2023-09-04T08:12:29.971Z,25.80
2023-09-04T08:14:56.925Z,25.40
2023-09-04T08:17:23.893Z,25.40
2023-09-04T08:19:50.950Z,25.60
2023-09-04T08:22:17.898Z,25.40
2023-09-04T08:24:44.854Z,25.30
2023-09-04T08:27:13.131Z,25.60
2023-09-04T08:29:40.031Z,25.60
2023-09-04T08:32:07.112Z,25.60
2023-09-04T08:34:34.047Z,25.60
2023-09-04T08:37:00.990Z,25.50
2023-09-04T08:39:27.893Z,25.60
2023-09-04T08:41:55.840Z,25.60
2023-09-04T08:44:25.107Z,25.70
2023-09-04T08:46:54.047Z,25.50
2023-09-04T08:49:21.352Z,25.40
2023-09-04T08:51:48.473Z,25.50
2023-09-04T08:54:15.723Z,25.40
2023-09-04T08:56:42.843Z,25.80
2023-09-04T08:59:09.817Z,25.60
2023-09-04T09:01:39.324Z,25.90
2023-09-04T09:04:06.804Z,26.10
2023-09-04T09:06:34.761Z,26.30
2023-09-04T09:09:02.119Z,26.50
2023-09-04T09:11:29.423Z,26.20
2023-09-04T09:13:56.414Z,26.00
2023-09-04T09:16:23.487Z,25.90
2023-09-04T09:18:55.043Z,25.80
2023-09-04T09:21:26.938Z,25.60
2023-09-04T09:24:08.922Z,25.40
2023-09-04T09:26:36.082Z,25.50
2023-09-04T09:29:03.288Z,25.80
2023-09-04T09:31:30.424Z,25.90
2023-09-04T09:34:06.741Z,26.10
2023-09-04T09:36:40.714Z,26.30
2023-09-04T09:39:07.663Z,26.70
2023-09-04T09:41:35.162Z,26.70
2023-09-04T09:44:02.698Z,27.00
2023-09-04T09:46:30.754Z,27.00
2023-09-04T09:48:59.210Z,27.00
2023-09-04T09:51:27.626Z,26.90
2023-09-04T09:53:54.733Z,27.10
2023-09-04T09:56:21.623Z,27.40
2023-09-04T09:58:50.331Z,27.40
2023-09-04T10:01:18.568Z,27.50
2023-09-04T10:03:45.805Z,27.70
2023-09-04T10:06:22.788Z,27.80
2023-09-04T10:08:52.294Z,28.00
2023-09-04T10:11:19.599Z,28.00
2023-09-04T10:13:54.008Z,28.00
2023-09-04T10:16:23.872Z,28.00
2023-09-04T10:18:52.462Z,28.00
2023-09-04T10:21:21.832Z,28.30
2023-09-04T10:24:00.304Z,28.30
2023-09-04T10:26:34.892Z,28.40
2023-09-04T10:29:04.341Z,28.20
2023-09-04T10:31:34.912Z,28.30
2023-09-04T10:34:02.668Z,28.20
2023-09-04T10:36:30.282Z,28.10
2023-09-04T10:39:07.047Z,28.00
2023-09-04T10:41:34.153Z,27.80
2023-09-04T10:44:01.152Z,28.00
2023-09-04T10:46:28.555Z,28.00
2023-09-04T10:48:56.323Z,27.90
2023-09-04T10:51:28.367Z,28.10
2023-09-04T10:53:55.757Z,28.20
2023-09-04T10:56:24.277Z,28.20
2023-09-04T10:59:02.135Z,28.00
2023-09-04T11:01:32.568Z,28.10
2023-09-04T11:04:01.976Z,28.20
2023-09-04T11:06:28.914Z,28.50
2023-09-04T11:08:55.875Z,28.60
2023-09-04T11:11:27.527Z,28.60
2023-09-04T11:13:59.394Z,28.80
2023-09-04T11:16:26.978Z,28.70
2023-09-04T11:19:08.049Z,28.80
2023-09-04T11:21:36.816Z,28.90
2023-09-04T11:24:04.932Z,28.70
2023-09-04T11:26:33.251Z,28.80
2023-09-04T11:29:01.416Z,28.90
2023-09-04T11:31:29.783Z,28.50
2023-09-04T11:33:56.877Z,28.70
2023-09-04T11:36:24.854Z,28.70
2023-09-04T11:39:06.804Z,28.80
2023-09-04T11:41:35.128Z,28.70
2023-09-04T11:44:04.510Z,29.00
2023-09-04T11:46:31.572Z,29.20
2023-09-04T11:48:58.558Z,29.30
2023-09-04T11:51:25.577Z,29.60
2023-09-04T11:53:54.120Z,29.60
2023-09-04T11:56:21.197Z,29.60
2023-09-04T11:58:50.122Z,29.60
2023-09-04T12:01:17.102Z,29.30
2023-09-04T12:03:44.198Z,29.20
2023-09-04T12:06:11.389Z,29.30
2023-09-04T12:08:38.451Z,29.50
2023-09-04T12:11:07.338Z,29.60
2023-09-04T12:13:36.596Z,29.50
2023-09-04T12:16:09.149Z,29.60
2023-09-04T12:18:36.955Z,29.30
2023-09-04T12:21:07.269Z,29.10
2023-09-04T12:23:41.088Z,29.20
2023-09-04T12:26:10.425Z,29.20
2023-09-04T12:28:37.916Z,29.00
2023-09-04T12:31:08.374Z,28.80
2023-09-04T12:33:39.366Z,28.70
2023-09-04T12:36:07.750Z,28.80
2023-09-04T12:38:41.577Z,28.90
2023-09-04T12:41:08.561Z,28.70
2023-09-04T12:43:35.882Z,28.50
2023-09-04T12:46:03.547Z,28.50
2023-09-04T12:48:31.860Z,28.60
2023-09-04T12:50:58.860Z,28.50
2023-09-04T12:53:26.127Z,28.50
2023-09-04T12:55:53.333Z,28.50
2023-09-04T12:58:20.217Z,28.40
2023-09-04T13:00:47.696Z,28.30
2023-09-04T13:03:14.941Z,28.40
2023-09-04T13:05:43.571Z,28.30
2023-09-04T13:08:10.647Z,28.10
2023-09-04T13:10:37.625Z,27.90
2023-09-04T13:13:04.839Z,28.00
2023-09-04T13:15:31.894Z,28.10
2023-09-04T13:17:58.860Z,28.10
2023-09-04T13:20:25.852Z,28.10
2023-09-04T13:22:54.410Z,28.00
2023-09-04T13:25:21.412Z,28.10
2023-09-04T13:27:48.370Z,28.10
2023-09-04T13:30:15.427Z,28.10
2023-09-04T13:32:42.438Z,28.00
2023-09-04T13:35:09.571Z,28.10
2023-09-04T13:37:42.734Z,28.00
2023-09-04T13:40:12.230Z,28.00
2023-09-04T13:42:39.161Z,27.90
2023-09-04T13:45:06.978Z,28.00
2023-09-04T13:47:33.952Z,28.00
2023-09-04T13:50:00.928Z,27.80
2023-09-04T13:52:27.890Z,27.80
2023-09-04T13:54:54.834Z,27.80
2023-09-04T13:57:23.476Z,27.90
2023-09-04T13:59:50.429Z,27.80
2023-09-04T14:02:17.473Z,27.80
2023-09-04T14:04:44.545Z,27.60
2023-09-04T14:07:11.470Z,27.40
2023-09-04T14:09:38.476Z,27.50
2023-09-04T14:12:06.475Z,27.40
2023-09-04T14:14:34.892Z,27.50
2023-09-04T14:17:01.845Z,27.30
2023-09-04T14:19:28.808Z,27.30
2023-09-04T14:21:55.752Z,27.10
2023-09-04T14:24:22.935Z,27.00
2023-09-04T14:26:49.921Z,27.00
2023-09-04T14:29:16.896Z,27.00
2023-09-04T14:31:45.358Z,27.20
2023-09-04T14:34:12.312Z,27.40
2023-09-04T14:36:41.655Z,27.50
2023-09-04T14:39:20.927Z,27.60
2023-09-04T14:41:48.089Z,27.50
2023-09-04T14:44:15.075Z,27.20
2023-09-04T14:46:42.104Z,27.10
2023-09-04T14:49:10.481Z,27.10
2023-09-04T14:51:37.372Z,27.30
2023-09-04T14:54:04.310Z,27.20
2023-09-04T14:56:31.234Z,27.20
2023-09-04T14:58:58.385Z,27.20
2023-09-04T15:01:25.598Z,27.20
2023-09-04T15:03:52.791Z,27.30
2023-09-04T15:06:21.241Z,27.40
2023-09-04T15:08:48.266Z,27.20
2023-09-04T15:11:15.902Z,27.30
2023-09-04T15:13:44.205Z,27.30
2023-09-04T15:16:11.329Z,27.30
2023-09-04T15:18:38.357Z,27.30
2023-09-04T15:21:06.713Z,27.50
2023-09-04T15:23:35.424Z,27.50
2023-09-04T15:26:02.793Z,27.50
2023-09-04T15:28:30.920Z,27.30
2023-09-04T15:30:58.025Z,27.30
2023-09-04T15:33:25.943Z,27.40
2023-09-04T15:35:54.710Z,27.30
2023-09-04T15:38:27.970Z,27.30
2023-09-04T15:40:56.361Z,27.40
2023-09-04T15:43:23.391Z,27.50
2023-09-04T15:45:51.039Z,27.70
2023-09-04T15:48:18.176Z,27.70
2023-09-04T15:50:45.074Z,27.80
2023-09-04T15:53:11.980Z,27.70
2023-09-04T15:55:38.978Z,27.70
2023-09-04T15:58:07.434Z,27.40
2023-09-04T16:00:34.822Z,27.30
2023-09-04T16:03:02.041Z,27.00
2023-09-04T16:05:29.063Z,26.90
2023-09-04T16:07:56.037Z,26.80
2023-09-04T16:10:22.982Z,26.70
2023-09-04T16:12:49.922Z,26.70
2023-09-04T16:15:19.274Z,26.70
2023-09-04T16:17:47.304Z,26.80
2023-09-04T16:20:14.314Z,27.00
2023-09-04T16:22:41.387Z,27.10
2023-09-04T16:25:08.575Z,27.10
2023-09-04T16:27:35.475Z,27.20
2023-09-04T16:30:02.444Z,27.20
2023-09-04T16:32:30.895Z,27.00
2023-09-04T16:34:57.876Z,27.00
2023-09-04T16:37:24.779Z,27.00
2023-09-04T16:39:51.852Z,26.90
2023-09-04T16:42:18.891Z,26.90
2023-09-04T16:44:45.800Z,26.80
2023-09-04T16:47:13.013Z,27.00
2023-09-04T16:49:41.309Z,27.00
2023-09-04T16:52:08.323Z,26.70
2023-09-04T16:54:35.261Z,26.50
2023-09-04T16:57:02.294Z,26.40
2023-09-04T16:59:29.257Z,26.20
2023-09-04T17:01:56.203Z,26.20
2023-09-04T17:04:23.116Z,26.10
2023-09-04T17:06:51.456Z,26.00
2023-09-04T17:09:18.418Z,25.90
2023-09-04T17:11:45.368Z,25.90
2023-09-04T17:14:12.328Z,25.80
2023-09-04T17:16:39.349Z,25.70
2023-09-04T17:19:06.334Z,25.60
2023-09-04T17:21:33.242Z,25.60
2023-09-04T17:24:01.555Z,25.50
2023-09-04T17:26:28.441Z,25.30
2023-09-04T17:28:56.411Z,25.30
2023-09-04T17:31:23.492Z,25.30
2023-09-04T17:33:50.495Z,25.20
2023-09-04T17:36:17.446Z,25.20
2023-09-04T17:38:44.539Z,25.10
2023-09-04T17:41:14.625Z,25.00
2023-09-04T17:43:42.320Z,24.90
2023-09-04T17:46:09.936Z,24.90
2023-09-04T17:48:36.932Z,24.80
2023-09-04T17:51:04.866Z,24.70
2023-09-04T17:53:32.215Z,24.60
2023-09-04T17:55:59.119Z,24.50
2023-09-04T17:58:29.645Z,24.40
2023-09-04T18:00:56.793Z,24.40
2023-09-04T18:03:23.875Z,24.20
2023-09-04T18:05:50.988Z,24.20
2023-09-04T18:08:18.106Z,24.10
2023-09-04T18:10:45.135Z,24.00
2023-09-04T18:13:12.266Z,24.00
2023-09-04T18:15:49.280Z,23.90
2023-09-04T18:18:18.029Z,23.80
2023-09-04T18:20:45.286Z,23.80
2023-09-04T18:23:12.436Z,23.70
2023-09-04T18:25:39.621Z,23.70
2023-09-04T18:28:09.675Z,23.60
2023-09-04T18:30:36.596Z,23.60
2023-09-04T18:33:05.484Z,23.50
2023-09-04T18:35:32.719Z,23.40
2023-09-04T18:37:59.686Z,23.30
2023-09-04T18:40:26.645Z,23.30
2023-09-04T18:42:53.859Z,23.30
2023-09-04T18:45:20.863Z,23.20
2023-09-04T18:47:47.844Z,23.20
2023-09-04T18:50:16.090Z,23.20
2023-09-04T18:52:43.000Z,23.20
2023-09-04T18:55:10.064Z,23.10
2023-09-04T18:57:36.956Z,23.00
2023-09-04T19:00:05.289Z,22.90
2023-09-04T19:02:32.338Z,22.90
2023-09-04T19:04:59.329Z,22.90
2023-09-04T19:07:27.612Z,22.80
2023-09-04T19:09:55.037Z,22.80
2023-09-04T19:12:21.951Z,22.70
2023-09-04T19:14:48.881Z,22.70
2023-09-04T19:17:15.793Z,22.60
2023-09-04T19:19:42.893Z,22.50
2023-09-04T19:22:09.891Z,22.60
2023-09-04T19:24:38.274Z,22.50
2023-09-04T19:27:05.564Z,22.60
2023-09-04T19:29:32.552Z,22.50
2023-09-04T19:31:59.541Z,22.50
2023-09-04T19:34:26.662Z,22.50
2023-09-04T19:36:53.590Z,22.40
2023-09-04T19:39:20.598Z,22.40
2023-09-04T19:41:48.875Z,22.40
2023-09-04T19:44:15.755Z,22.40
2023-09-04T19:46:42.760Z,22.40
2023-09-04T19:49:09.686Z,22.30
2023-09-04T19:51:36.605Z,22.30
2023-09-04T19:54:03.690Z,22.30
2023-09-04T19:56:30.756Z,22.30
2023-09-04T19:58:59.105Z,22.20
2023-09-04T20:01:26.188Z,22.20
2023-09-04T20:03:53.413Z,22.20
2023-09-04T20:06:20.371Z,22.20
2023-09-04T20:08:47.294Z,22.10
2023-09-04T20:11:14.253Z,22.10
2023-09-04T20:13:41.160Z,22.00
2023-09-04T20:16:09.569Z,22.00
2023-09-04T20:18:36.509Z,22.00
2023-09-04T20:21:03.469Z,22.00
2023-09-04T20:23:30.349Z,21.90
2023-09-04T20:26:00.282Z,21.90
2023-09-04T20:28:27.631Z,21.80
2023-09-04T20:30:55.027Z,21.70
2023-09-04T20:33:24.568Z,21.60
2023-09-04T20:35:52.473Z,21.50
2023-09-04T20:38:19.438Z,21.50
2023-09-04T20:40:46.538Z,21.40
2023-09-04T20:43:13.432Z,21.20
2023-09-04T20:45:40.492Z,21.20
2023-09-04T20:48:08.037Z,21.20
2023-09-04T20:50:36.435Z,21.10
2023-09-04T20:53:03.660Z,21.00
2023-09-04T20:55:30.762Z,20.90
2023-09-04T20:57:57.637Z,20.80
2023-09-04T21:00:24.670Z,20.90
2023-09-04T21:02:51.742Z,20.80
2023-09-04T21:05:18.775Z,20.70
2023-09-04T21:07:47.094Z,20.70
2023-09-04T21:10:15.239Z,20.70
2023-09-04T21:12:42.151Z,20.60
2023-09-04T21:15:09.963Z,20.60
2023-09-04T21:17:37.100Z,20.60
2023-09-04T21:20:04.629Z,20.60
2023-09-04T21:22:31.568Z,20.60
2023-09-04T21:25:00.146Z,20.50
2023-09-04T21:27:27.244Z,20.40
2023-09-04T21:29:54.167Z,20.40
2023-09-04T21:32:21.070Z,20.30
2023-09-04T21:34:48.253Z,20.30
2023-09-04T21:37:15.329Z,20.30
2023-09-04T21:39:42.248Z,20.30
2023-09-04T21:42:10.610Z,20.30
2023-09-04T21:44:37.607Z,20.20
2023-09-04T21:47:04.909Z,20.10
2023-09-04T21:49:31.875Z,20.10
2023-09-04T21:51:59.285Z,20.10
2023-09-04T21:54:26.264Z,20.00
2023-09-04T21:56:53.193Z,20.10
2023-09-04T21:59:21.642Z,20.10
2023-09-04T22:01:48.645Z,20.10
2023-09-04T22:04:15.779Z,20.00
2023-09-04T22:06:42.927Z,19.90
2023-09-04T22:09:09.886Z,19.80
2023-09-04T22:11:36.792Z,19.70
2023-09-04T22:14:03.729Z,19.70
2023-09-04T22:16:32.067Z,19.60
2023-09-04T22:18:58.973Z,19.60
2023-09-04T22:21:25.929Z,19.50
2023-09-04T22:23:53.320Z,19.50
2023-09-04T22:26:20.375Z,19.60
2023-09-04T22:28:47.457Z,19.60
2023-09-04T22:31:14.434Z,19.60
2023-09-04T22:33:43.431Z,19.50
2023-09-04T22:36:10.344Z,19.40
2023-09-04T22:38:37.293Z,19.40
2023-09-04T22:41:04.451Z,19.30
2023-09-04T22:43:31.438Z,19.20
2023-09-04T22:45:58.371Z,19.10
2023-09-04T22:48:25.341Z,19.10
2023-09-04T22:50:53.701Z,19.10
2023-09-04T22:53:20.678Z,19.00
2023-09-04T22:55:47.585Z,18.90
2023-09-04T22:58:14.479Z,18.90
2023-09-04T23:00:41.570Z,18.90
2023-09-04T23:03:12.524Z,18.80
2023-09-04T23:05:39.479Z,18.90
2023-09-04T23:08:08.116Z,18.90
2023-09-04T23:10:35.252Z,19.10
2023-09-04T23:13:02.162Z,19.00
2023-09-04T23:15:30.444Z,18.90
2023-09-04T23:17:57.511Z,18.90
2023-09-04T23:20:24.466Z,18.80
2023-09-04T23:22:51.358Z,18.90
2023-09-04T23:25:20.024Z,18.80
2023-09-04T23:27:47.178Z,18.70
2023-09-04T23:30:14.834Z,18.80
2023-09-04T23:32:41.839Z,18.70
2023-09-04T23:35:09.497Z,18.60
2023-09-04T23:37:36.500Z,18.50
2023-09-04T23:40:03.595Z,18.50
2023-09-04T23:42:35.956Z,18.50
2023-09-04T23:45:02.930Z,18.40
2023-09-04T23:47:29.935Z,18.50
2023-09-04T23:49:57.022Z,18.50
2023-09-04T23:52:23.988Z,18.50
2023-09-04T23:54:50.881Z,18.50
2023-09-04T23:57:18.009Z,18.50
2023-09-04T23:59:46.314Z,18.60
